Bunceton, MO (65237)

11:45 AM CDT on September 02, 2014 (GMT -0500)
Lake of the Woods | Change Station
CLOSE
Current Station
Personal Weather Station
Location: Boonville, MO
Elevation: 771 ft
Nearby Weather Stations
Active Advisory: Flood Warning Active Notice: Local Storm Report

Elev 771 ft 38.95 °N, 92.76 °W | Updated 0 second ago

Overcast
Overcast
78.4 °F
Feels Like 81 °F
N
0.0
Wind Variable Wind from North
Gusts 0.0 mph

Today
High -- | Low -- °F
--% Chance of Precip.
Yesterday
High -- | Low -- °F
Precip. -- in
6:41 AM 7:39 PM
First Quarter, 53% visible
Pressure 30.01 in
Visibility 5.0 miles
Clouds Scattered Clouds 700 ft
Overcast 1100 ft
Heat Index 81 °F
Dew Point 72 °F
Humidity 81%
Rainfall 0.04 in
Snow Depth Not available.
UV 2 out of 12
Pollen 7.40 out of 12
Air Quality Not available.
Flu Activity Not available.
SPECI KDMO 021621Z AUTO 24005KT 5SM BR SCT007 OVC011 23/22 A3001 RMK AO2 T02330217

More Conditions Fewer Conditions

Pressure 30.01 in
Visibility 5.0 miles
Clouds Scattered Clouds 700 ft
Overcast 1100 ft
Heat Index 81 °F
Dew Point 72 °F
Humidity 81%
Rainfall 0.04 in
Snow Depth Not available.
UV 2 out of 12
Pollen 7.40 out of 12
Air Quality Not available.
Flu Activity Not available.
SPECI KDMO 021621Z AUTO 24005KT 5SM BR SCT007 OVC011 23/22 A3001 RMK AO2 T02330217

More Conditions Fewer Conditions

10-Day Weather Forecast

Almanac

Astronomy

Sep. 02, 2014 Rise Set
Actual Time 6:41 AM CDT 7:39 PM CDT
Civil Twilight 6:13 AM CDT 8:07 PM CDT
Nautical Twilight 5:41 AM CDT 8:39 PM CDT
Astronomical Twilight 5:07 AM CDT 9:12 PM CDT
Moon 2:21 PM CDT No Moon Set
Length of Visible Light 13h 53m
Length of Day
12h 58m
Tomorrow will be 2m 25s shorter.
First Quarter, 53% of the Moon is Illuminated
Today
First Quarter
Sep 8
Full
Sep 15
Last Quarter
Sep 24
New
Oct 1
First Quarter

Today's Extremes

State Highs State Lows

Community

WunderPhotos

Upload Photos

1,749,716 photos uploaded!

Nearby

Snow Depth

Station Depth Elevation
No new snow has been reported.

Earthquake Activity

City Distance Mag. Time & Date
No recent earthquake activity has been reported nearby.
Minimum magnitude displayed is 2.5.

Coastal Water Temperatures

Place Temperature
No Stations Reporting

Nearby Weather Stations